Portada
METAR-TAF:

METAR-TAF

Aeroports :

Santa Clara, Cuba

latitud: 22-29-32N, longitud: 079-56-37W, altitud: 103 m

Observació

L'informe es va fer fa 37 minuts, a les 22:50 UTC
Vent 11 kt del Est
Temperatura 28°C
Humitat 51%
Pressió 1013 hPa
Visibilitat: 9000 m
Escasses núvols a una alçada de 3000 ft

METAR: MUSC 152250Z 09011KT 9000 FEW030 28/17 Q1013

Hora: 19:27 (23:27 UTC)

Pronòstic

L'informe es va fer fa 6 hores i 27 minuts, a les 17:00 UTC
Pronòstic vàlid del 15 a les 18 UTC al 16 a les 18 UTC
Vent 10 kt del Est
Visibilitat: 9000 m
Núvols disperses a una alçada de 2000 ft
Evolucionant progressivament
l' 16 a les 09 UTC al 16 a les 12 UTC
Vent 3 kt amb direcció variable

TAF: MUSC 151700Z 1518/1618 09010KT 9000 SCT020 BECMG 1609/1612 VRB03KT

Observacions i pronòstics meteorològics de més de 4000 aeroports (METAR i TAF).

Les estacions disponibles són els punts grocs i vermells al mapa.

Posi el ratolí al punt desitjat per veure el nom de l'estació.

Feu clic per veure les observacions i els pronòstics meteorològics.

Per canviar el mapa: feu clic els botons verds amb una creu de color negre per apropar; al botó verd amb un guió per allunyar la imatge; o en les fletxes verdes per a mapes adjacents.


METAR-TAF: